createdAt,value
2022-10-30T00:00:48.863Z,35.10
2022-10-30T00:03:16.371Z,35.70
2022-10-30T00:05:48.286Z,34.63
2022-10-30T00:08:18.049Z,34.58
2022-10-30T00:10:45.891Z,35.25
2022-10-30T00:13:14.115Z,35.55
2022-10-30T00:15:47.214Z,32.60
2022-10-30T00:18:14.212Z,34.63
2022-10-30T00:20:41.045Z,34.05
2022-10-30T00:23:07.804Z,34.10
2022-10-30T00:25:36.326Z,35.90
2022-10-30T00:28:05.242Z,35.95
2022-10-30T00:30:32.518Z,34.10
2022-10-30T00:32:59.721Z,36.15
2022-10-30T00:35:26.770Z,35.45
2022-10-30T00:37:53.909Z,35.17
2022-10-30T00:40:20.825Z,37.90
2022-10-30T00:42:48.381Z,36.67
2022-10-30T00:45:17.265Z,37.78
2022-10-30T00:47:59.450Z,38.25
2022-10-30T00:50:32.214Z,39.53
2022-10-30T00:53:11.867Z,38.15
2022-10-30T00:56:07.522Z,36.13
2022-10-30T00:58:44.968Z,36.53
2022-10-30T01:01:17.933Z,37.78
2022-10-30T01:03:46.266Z,36.22
2022-10-30T01:06:15.993Z,34.83
2022-10-30T01:08:43.853Z,37.22
2022-10-30T01:11:12.079Z,35.63
2022-10-30T01:13:42.921Z,36.05
2022-10-30T01:16:44.535Z,38.20
2022-10-30T01:19:29.883Z,36.60
2022-10-30T01:22:30.705Z,36.50
2022-10-30T01:25:34.547Z,37.63
2022-10-30T01:28:26.183Z,38.40
2022-10-30T01:30:56.947Z,37.55
2022-10-30T01:33:33.415Z,36.53
2022-10-30T01:36:12.749Z,36.35
2022-10-30T01:38:47.709Z,37.13
2022-10-30T01:41:14.898Z,35.17
2022-10-30T01:43:47.257Z,36.60
2022-10-30T01:46:23.065Z,36.88
2022-10-30T01:49:12.326Z,34.85
2022-10-30T01:51:56.423Z,36.20
2022-10-30T01:54:26.127Z,37.28
2022-10-30T01:57:17.316Z,35.97
2022-10-30T02:00:05.353Z,35.58
2022-10-30T02:02:40.041Z,35.83
2022-10-30T02:05:12.128Z,36.35
2022-10-30T02:07:39.004Z,37.55
2022-10-30T02:10:08.318Z,35.45
2022-10-30T02:12:35.234Z,35.70
2022-10-30T02:15:02.428Z,36.15
2022-10-30T02:17:29.498Z,36.03
2022-10-30T02:19:57.027Z,37.05
2022-10-30T02:22:25.128Z,36.63
2022-10-30T02:24:52.400Z,35.83
2022-10-30T02:27:22.463Z,36.28
2022-10-30T02:29:49.377Z,36.05
2022-10-30T02:32:16.249Z,32.90
2022-10-30T02:34:44.391Z,35.13
2022-10-30T02:37:11.340Z,37.53
2022-10-30T02:39:39.618Z,37.53
2022-10-30T02:42:07.570Z,37.85
2022-10-30T02:44:34.382Z,38.05
2022-10-30T02:47:01.312Z,38.60
2022-10-30T02:49:28.132Z,38.20
2022-10-30T02:51:54.980Z,38.35
2022-10-30T02:54:21.854Z,39.13
2022-10-30T02:56:49.374Z,39.88
2022-10-30T02:59:16.204Z,39.05
2022-10-30T03:01:43.671Z,39.38
2022-10-30T03:04:10.645Z,39.00
2022-10-30T03:06:37.513Z,38.25
2022-10-30T03:09:05.583Z,40.28
2022-10-30T03:11:34.126Z,39.63
2022-10-30T03:14:00.907Z,40.28
2022-10-30T03:16:29.496Z,39.22
2022-10-30T03:18:57.034Z,39.88
2022-10-30T03:21:25.220Z,39.08
2022-10-30T03:23:52.715Z,39.85
2022-10-30T03:26:20.239Z,37.03
2022-10-30T03:29:03.400Z,38.97
2022-10-30T03:31:31.193Z,40.85
2022-10-30T03:34:14.407Z,40.50
2022-10-30T03:36:42.143Z,38.10
2022-10-30T03:39:09.082Z,40.33
2022-10-30T03:41:36.677Z,39.15
2022-10-30T03:44:03.582Z,39.80
2022-10-30T03:46:31.519Z,39.28
2022-10-30T03:49:12.491Z,37.28
2022-10-30T03:51:39.418Z,38.83
2022-10-30T03:54:06.569Z,36.80
2022-10-30T03:56:33.444Z,38.38
2022-10-30T03:59:02.023Z,38.35
2022-10-30T04:01:30.096Z,36.58
2022-10-30T04:03:57.392Z,38.13
2022-10-30T04:06:25.414Z,36.92
2022-10-30T04:08:54.938Z,37.03
2022-10-30T04:11:22.032Z,37.83
2022-10-30T04:13:48.876Z,37.83
2022-10-30T04:16:15.671Z,38.35
2022-10-30T04:18:43.640Z,38.20
2022-10-30T04:21:11.858Z,40.00
2022-10-30T04:23:39.243Z,39.42
2022-10-30T04:26:06.206Z,40.40
2022-10-30T04:28:35.399Z,38.60
2022-10-30T04:31:04.087Z,40.17
2022-10-30T04:33:32.585Z,41.78
2022-10-30T04:36:00.318Z,41.15
2022-10-30T04:38:27.225Z,39.58
2022-10-30T04:40:56.038Z,40.63
2022-10-30T04:43:28.396Z,39.38
2022-10-30T04:45:55.209Z,41.45
2022-10-30T04:48:22.011Z,40.72
2022-10-30T04:50:49.064Z,40.75
2022-10-30T04:53:22.559Z,40.75
2022-10-30T04:55:55.543Z,41.35
2022-10-30T04:58:22.506Z,40.33
2022-10-30T05:01:03.385Z,41.92
2022-10-30T05:03:31.120Z,40.13
2022-10-30T05:06:04.363Z,39.80
2022-10-30T05:08:31.366Z,41.08
2022-10-30T05:11:05.162Z,40.97
2022-10-30T05:13:32.206Z,41.92
2022-10-30T05:15:58.991Z,40.05
2022-10-30T05:18:25.818Z,41.58
2022-10-30T05:20:53.087Z,41.70
2022-10-30T05:23:19.980Z,41.58
2022-10-30T05:25:46.951Z,41.70
2022-10-30T05:28:16.119Z,36.20
2022-10-30T05:30:52.349Z,37.90
2022-10-30T05:33:37.973Z,41.70
2022-10-30T05:36:05.755Z,41.75
2022-10-30T05:38:32.543Z,43.80
2022-10-30T05:40:59.983Z,41.58
2022-10-30T05:43:26.807Z,42.65
2022-10-30T05:45:53.667Z,41.63
2022-10-30T05:48:20.575Z,43.75
2022-10-30T05:50:47.614Z,43.30
2022-10-30T05:53:27.198Z,43.72
2022-10-30T05:55:59.997Z,43.63
2022-10-30T05:58:31.302Z,42.17
2022-10-30T06:01:06.072Z,43.97
2022-10-30T06:03:40.991Z,42.40
2022-10-30T06:06:07.968Z,44.20
2022-10-30T06:08:35.514Z,42.97
2022-10-30T06:11:12.348Z,42.92
2022-10-30T06:13:41.327Z,43.33
2022-10-30T06:16:12.471Z,42.65
2022-10-30T06:19:00.262Z,41.88
2022-10-30T06:21:28.696Z,41.78
2022-10-30T06:24:12.818Z,42.80
2022-10-30T06:27:02.937Z,41.05
2022-10-30T06:29:30.070Z,39.03
2022-10-30T06:31:58.695Z,40.30
2022-10-30T06:34:27.802Z,39.47
2022-10-30T06:36:54.982Z,39.65
2022-10-30T06:39:22.873Z,37.88
2022-10-30T06:42:12.492Z,39.28
2022-10-30T06:44:49.099Z,39.58
2022-10-30T06:47:16.303Z,38.20
2022-10-30T06:49:43.129Z,37.70
2022-10-30T06:52:10.054Z,37.72
2022-10-30T06:54:37.573Z,36.53
2022-10-30T06:57:40.054Z,36.00
2022-10-30T07:00:25.376Z,37.40
2022-10-30T07:03:10.831Z,37.85
2022-10-30T07:05:39.199Z,37.47
2022-10-30T07:08:06.000Z,36.90
2022-10-30T07:10:33.116Z,36.63
2022-10-30T07:13:18.622Z,36.33
2022-10-30T07:15:54.458Z,37.47
2022-10-30T07:18:26.344Z,38.60
2022-10-30T07:20:57.382Z,37.17
2022-10-30T07:23:25.165Z,36.55
2022-10-30T07:25:58.357Z,36.67
2022-10-30T07:28:33.861Z,37.38
2022-10-30T07:31:28.931Z,35.38
2022-10-30T07:34:38.343Z,34.10
2022-10-30T07:37:25.952Z,37.75
2022-10-30T07:39:59.751Z,37.30
2022-10-30T07:42:56.491Z,36.28
2022-10-30T07:45:41.303Z,36.17
2022-10-30T07:48:26.750Z,36.83
2022-10-30T07:51:02.251Z,35.63
2022-10-30T07:53:29.960Z,37.45
2022-10-30T07:55:58.038Z,36.10
2022-10-30T07:59:02.964Z,35.97
2022-10-30T08:01:52.875Z,35.15
2022-10-30T08:04:39.972Z,36.38
2022-10-30T08:07:47.133Z,35.17
2022-10-30T08:10:15.288Z,37.38
2022-10-30T08:12:44.532Z,37.42
2022-10-30T08:15:12.259Z,36.88
2022-10-30T08:17:46.883Z,36.80
2022-10-30T08:20:15.750Z,36.42
2022-10-30T08:22:54.046Z,36.40
2022-10-30T08:25:27.616Z,36.60
2022-10-30T08:28:04.020Z,37.28
2022-10-30T08:30:37.493Z,36.88
2022-10-30T08:33:08.128Z,37.33
2022-10-30T08:35:56.771Z,37.50
2022-10-30T08:38:24.255Z,35.80
2022-10-30T08:41:05.766Z,36.03
2022-10-30T08:43:38.861Z,36.35
2022-10-30T08:46:05.848Z,36.40
2022-10-30T08:48:32.742Z,34.88
2022-10-30T08:51:01.338Z,35.05
2022-10-30T08:53:34.299Z,35.03
2022-10-30T08:56:03.688Z,35.30
2022-10-30T08:58:42.334Z,34.65
2022-10-30T09:01:09.472Z,35.35
2022-10-30T09:03:54.814Z,35.10
2022-10-30T09:06:47.576Z,34.88
2022-10-30T09:09:32.981Z,34.25
2022-10-30T09:12:02.535Z,34.22
2022-10-30T09:14:34.161Z,35.53
2022-10-30T09:17:01.008Z,34.05
2022-10-30T09:19:29.118Z,33.20
2022-10-30T09:21:58.305Z,32.53
2022-10-30T09:24:25.188Z,31.05
2022-10-30T09:26:51.983Z,31.42
2022-10-30T09:29:26.079Z,31.67
2022-10-30T09:32:10.562Z,32.13
2022-10-30T09:34:48.304Z,31.90
2022-10-30T09:37:24.585Z,31.52
2022-10-30T09:39:55.262Z,31.30
2022-10-30T09:42:46.928Z,33.00
2022-10-30T09:45:29.625Z,31.42
2022-10-30T09:48:19.495Z,33.55
2022-10-30T09:51:13.821Z,32.65
2022-10-30T09:54:10.547Z,30.52
2022-10-30T09:57:12.625Z,32.35
2022-10-30T10:00:13.161Z,31.75
2022-10-30T10:03:19.886Z,30.45
2022-10-30T10:06:11.559Z,29.58
2022-10-30T10:09:01.043Z,27.90
2022-10-30T10:11:58.934Z,27.85
2022-10-30T10:14:32.547Z,27.80
2022-10-30T10:17:02.985Z,28.08
2022-10-30T10:19:38.663Z,28.52
2022-10-30T10:22:22.882Z,27.13
2022-10-30T10:24:50.659Z,26.83
2022-10-30T10:27:32.526Z,25.27
2022-10-30T10:30:02.993Z,25.23
2022-10-30T10:32:51.588Z,24.15
2022-10-30T10:35:24.773Z,24.48
2022-10-30T10:38:13.561Z,22.55
2022-10-30T10:41:03.286Z,22.73
2022-10-30T10:43:54.864Z,23.02
2022-10-30T10:46:36.864Z,23.70
2022-10-30T10:49:31.578Z,23.65
2022-10-30T10:52:07.177Z,22.13
2022-10-30T10:54:46.205Z,21.25
2022-10-30T10:57:27.626Z,21.50
2022-10-30T11:00:23.174Z,20.38
2022-10-30T11:03:00.392Z,19.83
2022-10-30T11:05:43.988Z,20.17
2022-10-30T11:08:17.231Z,18.17
2022-10-30T11:10:45.937Z,18.45
2022-10-30T11:13:14.731Z,18.63
2022-10-30T11:15:58.257Z,17.58
2022-10-30T11:18:25.179Z,17.63
2022-10-30T11:21:04.378Z,18.10
2022-10-30T11:23:36.008Z,18.02
2022-10-30T11:26:03.398Z,16.70
2022-10-30T11:28:41.936Z,16.60
2022-10-30T11:31:18.875Z,15.52
2022-10-30T11:33:45.752Z,16.92
2022-10-30T11:36:16.263Z,18.02
2022-10-30T11:38:43.085Z,18.05
2022-10-30T11:41:13.382Z,18.55
2022-10-30T11:43:41.685Z,18.33
2022-10-30T11:46:21.855Z,17.80
2022-10-30T11:48:54.992Z,16.77
2022-10-30T11:51:47.807Z,16.48
2022-10-30T11:54:21.558Z,18.35
2022-10-30T11:56:50.127Z,17.88
2022-10-30T11:59:22.900Z,17.35
2022-10-30T12:02:21.182Z,17.40
2022-10-30T12:04:49.619Z,17.05
2022-10-30T12:07:34.908Z,17.38
2022-10-30T12:10:03.123Z,15.98
2022-10-30T12:12:36.163Z,15.60
2022-10-30T12:15:21.419Z,16.63
2022-10-30T12:17:58.592Z,17.85
2022-10-30T12:20:26.825Z,19.23
2022-10-30T12:22:54.392Z,19.20
2022-10-30T12:25:25.671Z,19.58
2022-10-30T12:28:01.160Z,19.92
2022-10-30T12:30:32.833Z,18.63
2022-10-30T12:33:13.955Z,19.48
2022-10-30T12:36:12.205Z,18.15
2022-10-30T12:38:58.345Z,18.95
2022-10-30T12:41:29.605Z,18.90
2022-10-30T12:44:18.766Z,19.65
2022-10-30T12:46:55.924Z,29.13
2022-10-30T12:49:39.866Z,28.80
2022-10-30T12:52:34.315Z,23.63
2022-10-30T12:55:04.147Z,19.30
2022-10-30T12:57:41.385Z,17.10
2022-10-30T13:00:16.832Z,17.17
2022-10-30T13:03:21.553Z,18.58
2022-10-30T13:05:59.767Z,18.40
2022-10-30T13:08:53.455Z,19.30
2022-10-30T13:11:39.341Z,20.90
2022-10-30T13:14:13.389Z,21.45
2022-10-30T13:16:40.257Z,19.50
2022-10-30T13:19:11.400Z,20.17
2022-10-30T13:21:59.456Z,20.65
2022-10-30T13:25:00.759Z,19.95
2022-10-30T13:27:54.660Z,21.15
2022-10-30T13:30:23.448Z,20.52
2022-10-30T13:33:06.587Z,20.10
2022-10-30T13:35:59.366Z,20.20
2022-10-30T13:38:46.318Z,21.75
2022-10-30T13:41:34.449Z,21.08
2022-10-30T13:44:07.651Z,21.15
2022-10-30T13:47:08.630Z,20.40
2022-10-30T13:49:41.413Z,20.77
2022-10-30T13:52:17.156Z,20.00
2022-10-30T13:54:59.242Z,19.95
2022-10-30T13:57:34.330Z,20.83
2022-10-30T14:00:07.334Z,21.27
2022-10-30T14:02:58.327Z,20.73
2022-10-30T14:05:36.841Z,20.80
2022-10-30T14:08:11.305Z,20.38
2022-10-30T14:10:45.869Z,21.42
2022-10-30T14:13:27.088Z,21.27
2022-10-30T14:16:01.148Z,21.88
2022-10-30T14:18:30.792Z,23.13
2022-10-30T14:21:18.777Z,21.65
2022-10-30T14:23:45.594Z,22.60
2022-10-30T14:26:14.350Z,22.88
2022-10-30T14:28:46.933Z,24.40
2022-10-30T14:31:16.910Z,27.75
2022-10-30T14:33:48.446Z,26.15
2022-10-30T14:36:33.691Z,24.67
2022-10-30T14:39:21.513Z,25.90
2022-10-30T14:42:03.296Z,27.85
2022-10-30T14:44:48.514Z,24.50
2022-10-30T14:47:27.102Z,25.30
2022-10-30T14:50:01.980Z,25.63
2022-10-30T14:52:41.145Z,26.38
2022-10-30T14:55:31.956Z,26.48
2022-10-30T14:58:01.977Z,25.40
2022-10-30T15:00:40.046Z,27.52
2022-10-30T15:03:15.792Z,27.30
2022-10-30T15:06:06.025Z,26.75
2022-10-30T15:08:54.949Z,29.02
2022-10-30T15:11:26.984Z,28.05
2022-10-30T15:13:58.409Z,28.50
2022-10-30T15:16:27.883Z,29.67
2022-10-30T15:19:05.224Z,28.52
2022-10-30T15:21:41.764Z,29.52
2022-10-30T15:24:20.284Z,27.83
2022-10-30T15:26:53.291Z,28.25
2022-10-30T15:29:31.382Z,27.75
2022-10-30T15:32:01.603Z,29.67
2022-10-30T15:34:30.765Z,33.97
2022-10-30T15:36:57.652Z,32.47
2022-10-30T15:39:25.433Z,32.15
2022-10-30T15:41:56.782Z,32.95
2022-10-30T15:44:27.519Z,33.80
2022-10-30T15:46:56.907Z,32.97
2022-10-30T15:49:37.945Z,40.05
2022-10-30T15:52:25.093Z,42.05
2022-10-30T15:54:57.911Z,38.88
2022-10-30T15:58:12.862Z,38.75
2022-10-30T16:00:26.873Z,40.85
2022-10-30T16:03:13.655Z,39.85
2022-10-30T16:05:40.560Z,42.38
2022-10-30T16:08:15.714Z,40.88
2022-10-30T16:10:44.482Z,37.20
2022-10-30T16:13:18.332Z,40.10
2022-10-30T16:15:49.767Z,38.88
2022-10-30T16:18:27.216Z,39.83
2022-10-30T16:21:02.982Z,40.58
2022-10-30T16:23:36.115Z,36.72
2022-10-30T16:26:02.906Z,38.55
2022-10-30T16:28:31.144Z,44.20
2022-10-30T16:31:01.661Z,46.95
2022-10-30T16:33:31.187Z,46.17
2022-10-30T16:35:59.671Z,49.08
2022-10-30T16:38:29.998Z,51.65
2022-10-30T16:40:57.217Z,50.75
2022-10-30T16:43:28.353Z,50.00
2022-10-30T16:45:57.038Z,46.50
2022-10-30T16:48:28.745Z,48.08
2022-10-30T16:51:03.691Z,50.03
2022-10-30T16:53:31.658Z,52.53
2022-10-30T16:55:59.358Z,49.95
2022-10-30T16:58:31.828Z,53.22
2022-10-30T17:01:06.936Z,52.90
2022-10-30T17:03:38.297Z,54.17
2022-10-30T17:06:07.854Z,55.28
2022-10-30T17:08:43.207Z,54.47
2022-10-30T17:11:18.784Z,55.13
2022-10-30T17:13:54.742Z,53.78
2022-10-30T17:16:27.033Z,49.40
2022-10-30T17:18:59.580Z,50.15
2022-10-30T17:21:38.303Z,52.40
2022-10-30T17:24:05.640Z,52.85
2022-10-30T17:26:39.232Z,53.67
2022-10-30T17:29:06.072Z,54.63
2022-10-30T17:31:38.819Z,56.85
2022-10-30T17:34:13.629Z,53.65
2022-10-30T17:36:43.215Z,53.78
2022-10-30T17:39:10.040Z,53.15
2022-10-30T17:41:37.545Z,54.50
2022-10-30T17:44:05.435Z,49.65
2022-10-30T17:46:32.661Z,49.30
2022-10-30T17:48:59.962Z,51.58
2022-10-30T17:51:28.324Z,50.78
2022-10-30T17:53:55.178Z,51.10
2022-10-30T17:56:28.892Z,50.88
2022-10-30T17:58:56.041Z,51.50
2022-10-30T18:01:25.244Z,51.70
2022-10-30T18:03:55.151Z,52.65
2022-10-30T18:06:24.929Z,52.53
2022-10-30T18:08:51.852Z,52.80
2022-10-30T18:11:21.067Z,52.60
2022-10-30T18:13:49.207Z,51.03
2022-10-30T18:16:18.785Z,50.42
2022-10-30T18:18:45.941Z,49.28
2022-10-30T18:21:17.920Z,52.00
2022-10-30T18:23:53.424Z,49.78
2022-10-30T18:26:25.339Z,48.90
2022-10-30T18:28:52.845Z,49.72
2022-10-30T18:31:22.064Z,48.33
2022-10-30T18:33:49.431Z,51.33
2022-10-30T18:36:18.693Z,50.53
2022-10-30T18:38:54.722Z,49.13
2022-10-30T18:41:35.568Z,47.17
2022-10-30T18:44:02.889Z,48.30
2022-10-30T18:46:31.452Z,50.42
2022-10-30T18:48:58.954Z,46.10
2022-10-30T18:51:27.493Z,49.42
2022-10-30T18:53:57.160Z,49.95
2022-10-30T18:56:26.895Z,47.17
2022-10-30T18:58:58.690Z,45.92
2022-10-30T19:01:34.146Z,47.60
2022-10-30T19:04:02.383Z,50.15
2022-10-30T19:06:29.636Z,51.63
2022-10-30T19:08:56.468Z,52.95
2022-10-30T19:11:25.333Z,54.63
2022-10-30T19:13:53.777Z,53.47
2022-10-30T19:16:21.733Z,49.88
2022-10-30T19:18:48.737Z,49.10
2022-10-30T19:21:21.269Z,50.70
2022-10-30T19:23:48.604Z,50.85
2022-10-30T19:26:16.240Z,55.55
2022-10-30T19:28:44.393Z,55.28
2022-10-30T19:31:16.080Z,54.88
2022-10-30T19:33:42.975Z,56.15
2022-10-30T19:36:33.846Z,55.15
2022-10-30T19:39:08.338Z,53.63
2022-10-30T19:41:36.225Z,56.42
2022-10-30T19:44:03.158Z,53.95
2022-10-30T19:46:29.972Z,54.17
2022-10-30T19:48:58.127Z,54.83
2022-10-30T19:51:25.655Z,55.13
2022-10-30T19:53:53.845Z,54.47
2022-10-30T19:56:21.692Z,54.80
2022-10-30T19:58:48.840Z,53.88
2022-10-30T20:01:16.170Z,51.47
2022-10-30T20:03:43.377Z,51.25
2022-10-30T20:06:14.051Z,53.50
2022-10-30T20:08:41.221Z,53.53
2022-10-30T20:11:08.385Z,53.80
2022-10-30T20:13:37.252Z,51.30
2022-10-30T20:16:05.400Z,55.15
2022-10-30T20:18:35.095Z,52.10
2022-10-30T20:21:13.496Z,53.88
2022-10-30T20:23:40.265Z,54.80
2022-10-30T20:26:26.426Z,53.08
2022-10-30T20:28:53.621Z,51.22
2022-10-30T20:31:20.935Z,51.75
2022-10-30T20:33:47.826Z,53.30
2022-10-30T20:36:14.684Z,52.45
2022-10-30T20:38:41.622Z,51.58
2022-10-30T20:41:21.149Z,53.92
2022-10-30T20:43:50.063Z,52.85
2022-10-30T20:46:17.704Z,53.17
2022-10-30T20:48:44.513Z,53.90
2022-10-30T20:51:11.739Z,53.42
2022-10-30T20:53:38.972Z,52.03
2022-10-30T20:56:06.512Z,53.17
2022-10-30T20:58:33.433Z,51.75
2022-10-30T21:01:00.751Z,51.08
2022-10-30T21:03:28.014Z,51.22
2022-10-30T21:06:00.015Z,52.13
2022-10-30T21:08:31.744Z,50.67
2022-10-30T21:11:03.123Z,52.65
2022-10-30T21:13:30.212Z,52.40
2022-10-30T21:16:01.822Z,51.50
2022-10-30T21:18:28.646Z,53.17
2022-10-30T21:21:00.544Z,51.05
2022-10-30T21:23:27.457Z,54.10
2022-10-30T21:25:59.908Z,54.38
2022-10-30T21:28:26.686Z,51.83
2022-10-30T21:30:53.448Z,50.20
2022-10-30T21:33:20.265Z,49.22
2022-10-30T21:35:47.048Z,50.15
2022-10-30T21:38:13.848Z,48.40
2022-10-30T21:40:40.604Z,48.33
2022-10-30T21:43:07.743Z,49.90
2022-10-30T21:45:36.717Z,48.15
2022-10-30T21:48:03.601Z,47.60
2022-10-30T21:50:30.351Z,50.00
2022-10-30T21:52:57.378Z,48.13
2022-10-30T21:55:24.411Z,46.08
2022-10-30T21:57:51.236Z,44.92
2022-10-30T22:00:18.216Z,39.60
2022-10-30T22:02:45.028Z,42.40
2022-10-30T22:05:11.800Z,44.55
2022-10-30T22:07:38.606Z,43.75
2022-10-30T22:10:06.081Z,44.92
2022-10-30T22:12:32.926Z,43.03
2022-10-30T22:14:59.759Z,42.67
2022-10-30T22:17:30.675Z,42.97
2022-10-30T22:20:00.673Z,42.67
2022-10-30T22:22:29.003Z,40.72
2022-10-30T22:24:55.775Z,39.80
2022-10-30T22:27:22.548Z,41.53
2022-10-30T22:29:49.296Z,41.95
2022-10-30T22:32:16.089Z,42.85
2022-10-30T22:34:42.819Z,43.03
2022-10-30T22:37:09.571Z,44.78
2022-10-30T22:39:36.339Z,43.50
2022-10-30T22:42:03.088Z,45.50
2022-10-30T22:44:29.872Z,45.45
2022-10-30T22:46:56.630Z,44.67
2022-10-30T22:49:23.402Z,47.00
2022-10-30T22:51:50.164Z,42.72
2022-10-30T22:54:16.961Z,47.83
2022-10-30T22:56:43.742Z,49.28
2022-10-30T22:59:12.972Z,51.00
2022-10-30T23:01:40.904Z,51.10
2022-10-30T23:04:11.053Z,52.50
2022-10-30T23:06:38.257Z,51.28
2022-10-30T23:09:08.539Z,49.00
2022-10-30T23:11:35.442Z,50.97
2022-10-30T23:14:02.232Z,49.50
2022-10-30T23:16:29.364Z,49.53
2022-10-30T23:18:58.677Z,49.58
2022-10-30T23:21:28.339Z,49.58
2022-10-30T23:23:55.929Z,49.92
2022-10-30T23:26:28.893Z,49.40
2022-10-30T23:28:57.015Z,53.70
2022-10-30T23:31:27.540Z,51.72
2022-10-30T23:33:57.575Z,52.30
2022-10-30T23:36:25.313Z,52.72
2022-10-30T23:38:55.781Z,54.90
2022-10-30T23:41:24.995Z,52.45
2022-10-30T23:43:57.086Z,53.28
2022-10-30T23:46:24.061Z,53.20
2022-10-30T23:48:50.839Z,53.35
2022-10-30T23:51:18.539Z,55.33
2022-10-30T23:53:45.305Z,53.15
2022-10-30T23:56:12.595Z,54.97
2022-10-30T23:58:42.355Z,56.28
